sensor_id;sensor_type;location;lat;lon;timestamp;P1;durP1;ratioP1;P2;durP2;ratioP2
6937;SDS011;40040;42.706;23.372;2023-07-13T00:02:21;9.63;;;8.65;;
6937;SDS011;40040;42.706;23.372;2023-07-13T00:04:48;9.35;;;8.55;;
6937;SDS011;40040;42.706;23.372;2023-07-13T00:07:15;9.55;;;8.65;;
6937;SDS011;40040;42.706;23.372;2023-07-13T00:09:45;9.77;;;8.85;;
6937;SDS011;40040;42.706;23.372;2023-07-13T00:12:22;10.00;;;8.80;;
6937;SDS011;40040;42.706;23.372;2023-07-13T00:14:52;11.65;;;9.75;;
6937;SDS011;40040;42.706;23.372;2023-07-13T00:17:19;9.50;;;8.43;;
6937;SDS011;40040;42.706;23.372;2023-07-13T00:19:45;9.35;;;8.48;;
6937;SDS011;40040;42.706;23.372;2023-07-13T00:22:13;10.68;;;8.98;;
6937;SDS011;40040;42.706;23.372;2023-07-13T00:24:40;12.13;;;9.80;;
6937;SDS011;40040;42.706;23.372;2023-07-13T00:27:08;12.32;;;9.68;;
6937;SDS011;40040;42.706;23.372;2023-07-13T00:29:35;10.57;;;9.45;;
6937;SDS011;40040;42.706;23.372;2023-07-13T00:32:03;11.27;;;10.07;;
6937;SDS011;40040;42.706;23.372;2023-07-13T00:34:32;12.55;;;9.50;;
6937;SDS011;40040;42.706;23.372;2023-07-13T00:36:59;12.38;;;9.45;;
6937;SDS011;40040;42.706;23.372;2023-07-13T00:39:26;11.20;;;9.90;;
6937;SDS011;40040;42.706;23.372;2023-07-13T00:41:53;10.90;;;9.82;;
6937;SDS011;40040;42.706;23.372;2023-07-13T00:44:20;12.93;;;10.13;;
6937;SDS011;40040;42.706;23.372;2023-07-13T00:46:48;11.60;;;9.75;;
6937;SDS011;40040;42.706;23.372;2023-07-13T00:49:17;11.70;;;9.85;;
6937;SDS011;40040;42.706;23.372;2023-07-13T00:51:47;11.50;;;10.27;;
6937;SDS011;40040;42.706;23.372;2023-07-13T00:54:17;10.88;;;9.80;;
6937;SDS011;40040;42.706;23.372;2023-07-13T00:56:48;11.40;;;10.02;;
6937;SDS011;40040;42.706;23.372;2023-07-13T00:59:18;10.80;;;9.70;;
6937;SDS011;40040;42.706;23.372;2023-07-13T01:01:47;13.23;;;10.00;;
6937;SDS011;40040;42.706;23.372;2023-07-13T01:04:16;10.35;;;9.32;;
6937;SDS011;40040;42.706;23.372;2023-07-13T01:06:43;12.15;;;9.57;;
6937;SDS011;40040;42.706;23.372;2023-07-13T01:09:12;10.60;;;9.57;;
6937;SDS011;40040;42.706;23.372;2023-07-13T01:11:41;11.45;;;9.88;;
6937;SDS011;40040;42.706;23.372;2023-07-13T01:14:10;10.75;;;9.63;;
6937;SDS011;40040;42.706;23.372;2023-07-13T01:16:37;10.55;;;9.55;;
6937;SDS011;40040;42.706;23.372;2023-07-13T01:19:08;11.07;;;9.65;;
6937;SDS011;40040;42.706;23.372;2023-07-13T01:21:42;12.18;;;9.73;;
6937;SDS011;40040;42.706;23.372;2023-07-13T01:24:09;11.65;;;9.50;;
6937;SDS011;40040;42.706;23.372;2023-07-13T01:26:36;14.20;;;10.18;;
6937;SDS011;40040;42.706;23.372;2023-07-13T01:29:03;10.90;;;9.95;;
6937;SDS011;40040;42.706;23.372;2023-07-13T01:31:30;11.77;;;10.57;;
6937;SDS011;40040;42.706;23.372;2023-07-13T01:33:57;11.02;;;9.93;;
6937;SDS011;40040;42.706;23.372;2023-07-13T01:36:24;11.20;;;9.95;;
6937;SDS011;40040;42.706;23.372;2023-07-13T01:38:52;13.55;;;10.63;;
6937;SDS011;40040;42.706;23.372;2023-07-13T01:41:19;14.40;;;10.27;;
6937;SDS011;40040;42.706;23.372;2023-07-13T01:43:46;11.25;;;10.18;;
6937;SDS011;40040;42.706;23.372;2023-07-13T01:46:13;12.57;;;10.90;;
6937;SDS011;40040;42.706;23.372;2023-07-13T01:48:40;11.98;;;10.73;;
6937;SDS011;40040;42.706;23.372;2023-07-13T01:51:06;13.25;;;11.70;;
6937;SDS011;40040;42.706;23.372;2023-07-13T01:53:33;12.85;;;10.90;;
6937;SDS011;40040;42.706;23.372;2023-07-13T01:56:01;11.73;;;10.63;;
6937;SDS011;40040;42.706;23.372;2023-07-13T01:58:28;11.75;;;10.60;;
6937;SDS011;40040;42.706;23.372;2023-07-13T02:00:55;12.32;;;10.73;;
6937;SDS011;40040;42.706;23.372;2023-07-13T02:03:22;12.20;;;10.27;;
6937;SDS011;40040;42.706;23.372;2023-07-13T02:05:48;12.68;;;11.40;;
6937;SDS011;40040;42.706;23.372;2023-07-13T02:08:15;12.13;;;10.82;;
6937;SDS011;40040;42.706;23.372;2023-07-13T02:10:42;12.30;;;11.07;;
6937;SDS011;40040;42.706;23.372;2023-07-13T02:13:10;13.10;;;11.05;;
6937;SDS011;40040;42.706;23.372;2023-07-13T02:15:38;12.68;;;11.27;;
6937;SDS011;40040;42.706;23.372;2023-07-13T02:18:06;13.32;;;10.88;;
6937;SDS011;40040;42.706;23.372;2023-07-13T02:20:33;12.38;;;11.07;;
6937;SDS011;40040;42.706;23.372;2023-07-13T02:23:00;14.88;;;11.60;;
6937;SDS011;40040;42.706;23.372;2023-07-13T02:25:27;12.80;;;10.95;;
6937;SDS011;40040;42.706;23.372;2023-07-13T02:27:54;13.48;;;11.40;;
6937;SDS011;40040;42.706;23.372;2023-07-13T02:30:22;12.30;;;10.70;;
6937;SDS011;40040;42.706;23.372;2023-07-13T02:32:50;11.70;;;10.50;;
6937;SDS011;40040;42.706;23.372;2023-07-13T02:35:17;12.40;;;11.10;;
6937;SDS011;40040;42.706;23.372;2023-07-13T02:37:44;12.07;;;10.27;;
6937;SDS011;40040;42.706;23.372;2023-07-13T02:40:11;12.93;;;11.15;;
6937;SDS011;40040;42.706;23.372;2023-07-13T02:42:38;12.65;;;11.07;;
6937;SDS011;40040;42.706;23.372;2023-07-13T02:45:05;11.95;;;10.73;;
6937;SDS011;40040;42.706;23.372;2023-07-13T02:47:34;12.25;;;10.95;;
6937;SDS011;40040;42.706;23.372;2023-07-13T02:50:01;12.43;;;10.75;;
6937;SDS011;40040;42.706;23.372;2023-07-13T02:52:27;12.80;;;11.23;;
6937;SDS011;40040;42.706;23.372;2023-07-13T02:54:54;12.25;;;11.05;;
6937;SDS011;40040;42.706;23.372;2023-07-13T02:57:21;12.45;;;10.90;;
6937;SDS011;40040;42.706;23.372;2023-07-13T02:59:48;12.25;;;10.95;;
6937;SDS011;40040;42.706;23.372;2023-07-13T03:02:15;11.98;;;10.77;;
6937;SDS011;40040;42.706;23.372;2023-07-13T03:04:44;13.88;;;10.75;;
6937;SDS011;40040;42.706;23.372;2023-07-13T03:07:11;11.90;;;10.57;;
6937;SDS011;40040;42.706;23.372;2023-07-13T03:09:39;11.88;;;10.48;;
6937;SDS011;40040;42.706;23.372;2023-07-13T03:12:06;13.75;;;10.90;;
6937;SDS011;40040;42.706;23.372;2023-07-13T03:14:33;11.88;;;10.68;;
6937;SDS011;40040;42.706;23.372;2023-07-13T03:17:00;13.30;;;10.55;;
6937;SDS011;40040;42.706;23.372;2023-07-13T03:19:27;11.57;;;10.48;;
6937;SDS011;40040;42.706;23.372;2023-07-13T03:21:55;12.02;;;10.65;;
6937;SDS011;40040;42.706;23.372;2023-07-13T03:24:22;12.68;;;11.38;;
6937;SDS011;40040;42.706;23.372;2023-07-13T03:26:51;12.57;;;11.32;;
6937;SDS011;40040;42.706;23.372;2023-07-13T03:29:18;13.43;;;11.27;;
6937;SDS011;40040;42.706;23.372;2023-07-13T03:31:45;12.50;;;11.25;;
6937;SDS011;40040;42.706;23.372;2023-07-13T03:34:11;13.00;;;11.70;;
6937;SDS011;40040;42.706;23.372;2023-07-13T03:36:38;13.52;;;11.15;;
6937;SDS011;40040;42.706;23.372;2023-07-13T03:39:06;12.50;;;11.20;;
6937;SDS011;40040;42.706;23.372;2023-07-13T03:41:35;12.48;;;11.10;;
6937;SDS011;40040;42.706;23.372;2023-07-13T03:44:02;12.90;;;10.98;;
6937;SDS011;40040;42.706;23.372;2023-07-13T03:46:29;15.23;;;11.30;;
6937;SDS011;40040;42.706;23.372;2023-07-13T03:48:57;14.13;;;11.25;;
6937;SDS011;40040;42.706;23.372;2023-07-13T03:51:24;13.02;;;11.43;;
6937;SDS011;40040;42.706;23.372;2023-07-13T03:53:51;13.10;;;11.45;;
6937;SDS011;40040;42.706;23.372;2023-07-13T03:56:19;11.98;;;10.65;;
6937;SDS011;40040;42.706;23.372;2023-07-13T03:58:46;12.55;;;11.25;;
6937;SDS011;40040;42.706;23.372;2023-07-13T04:01:15;12.95;;;11.52;;
6937;SDS011;40040;42.706;23.372;2023-07-13T04:03:43;13.30;;;11.25;;
6937;SDS011;40040;42.706;23.372;2023-07-13T04:06:13;14.00;;;11.23;;
6937;SDS011;40040;42.706;23.372;2023-07-13T04:08:46;13.98;;;11.48;;
6937;SDS011;40040;42.706;23.372;2023-07-13T04:11:15;13.38;;;11.23;;
6937;SDS011;40040;42.706;23.372;2023-07-13T04:13:43;13.18;;;11.38;;
6937;SDS011;40040;42.706;23.372;2023-07-13T04:16:11;15.57;;;11.20;;
6937;SDS011;40040;42.706;23.372;2023-07-13T04:18:38;13.60;;;11.45;;
6937;SDS011;40040;42.706;23.372;2023-07-13T04:21:05;12.00;;;10.63;;
6937;SDS011;40040;42.706;23.372;2023-07-13T04:23:31;11.75;;;10.55;;
6937;SDS011;40040;42.706;23.372;2023-07-13T04:25:58;12.30;;;11.05;;
6937;SDS011;40040;42.706;23.372;2023-07-13T04:28:26;13.50;;;12.10;;
6937;SDS011;40040;42.706;23.372;2023-07-13T04:30:54;12.77;;;11.23;;
6937;SDS011;40040;42.706;23.372;2023-07-13T04:33:21;13.48;;;11.60;;
6937;SDS011;40040;42.706;23.372;2023-07-13T04:35:49;14.40;;;12.68;;
6937;SDS011;40040;42.706;23.372;2023-07-13T04:38:19;13.80;;;11.95;;
6937;SDS011;40040;42.706;23.372;2023-07-13T04:40:47;14.90;;;12.15;;
6937;SDS011;40040;42.706;23.372;2023-07-13T04:43:14;14.68;;;13.18;;
6937;SDS011;40040;42.706;23.372;2023-07-13T04:45:40;14.10;;;12.60;;
6937;SDS011;40040;42.706;23.372;2023-07-13T04:48:09;14.82;;;12.38;;
6937;SDS011;40040;42.706;23.372;2023-07-13T04:50:36;16.10;;;13.43;;
6937;SDS011;40040;42.706;23.372;2023-07-13T04:53:04;14.93;;;12.90;;
6937;SDS011;40040;42.706;23.372;2023-07-13T04:55:31;16.92;;;13.48;;
6937;SDS011;40040;42.706;23.372;2023-07-13T04:57:58;15.50;;;13.13;;
6937;SDS011;40040;42.706;23.372;2023-07-13T05:00:25;15.13;;;13.63;;
6937;SDS011;40040;42.706;23.372;2023-07-13T05:02:53;18.77;;;14.38;;
6937;SDS011;40040;42.706;23.372;2023-07-13T05:05:22;18.70;;;14.95;;
6937;SDS011;40040;42.706;23.372;2023-07-13T05:07:49;16.15;;;14.02;;
6937;SDS011;40040;42.706;23.372;2023-07-13T05:10:16;19.00;;;14.55;;
6937;SDS011;40040;42.706;23.372;2023-07-13T05:12:43;18.80;;;14.90;;
6937;SDS011;40040;42.706;23.372;2023-07-13T05:15:10;23.27;;;15.52;;
6937;SDS011;40040;42.706;23.372;2023-07-13T05:17:37;18.60;;;15.27;;
6937;SDS011;40040;42.706;23.372;2023-07-13T05:20:05;19.38;;;15.07;;
6937;SDS011;40040;42.706;23.372;2023-07-13T05:22:34;21.05;;;16.05;;
6937;SDS011;40040;42.706;23.372;2023-07-13T05:25:01;21.13;;;17.25;;
6937;SDS011;40040;42.706;23.372;2023-07-13T05:27:30;24.52;;;16.92;;
6937;SDS011;40040;42.706;23.372;2023-07-13T05:29:57;24.98;;;17.42;;
6937;SDS011;40040;42.706;23.372;2023-07-13T05:32:23;20.55;;;16.30;;
6937;SDS011;40040;42.706;23.372;2023-07-13T05:34:50;20.17;;;15.27;;
6937;SDS011;40040;42.706;23.372;2023-07-13T05:37:17;21.55;;;16.80;;
6937;SDS011;40040;42.706;23.372;2023-07-13T05:39:45;22.45;;;16.23;;
6937;SDS011;40040;42.706;23.372;2023-07-13T05:42:12;22.27;;;16.20;;
6937;SDS011;40040;42.706;23.372;2023-07-13T05:44:39;22.70;;;16.00;;
6937;SDS011;40040;42.706;23.372;2023-07-13T05:47:06;19.40;;;15.48;;
6937;SDS011;40040;42.706;23.372;2023-07-13T05:49:32;19.83;;;15.18;;
6937;SDS011;40040;42.706;23.372;2023-07-13T05:51:59;21.17;;;16.30;;
6937;SDS011;40040;42.706;23.372;2023-07-13T05:54:26;26.08;;;15.93;;
6937;SDS011;40040;42.706;23.372;2023-07-13T05:56:54;21.33;;;15.85;;
6937;SDS011;40040;42.706;23.372;2023-07-13T05:59:21;16.80;;;15.10;;
6937;SDS011;40040;42.706;23.372;2023-07-13T06:01:48;19.92;;;16.13;;
6937;SDS011;40040;42.706;23.372;2023-07-13T06:04:17;20.92;;;14.95;;
6937;SDS011;40040;42.706;23.372;2023-07-13T06:06:44;21.23;;;15.27;;
6937;SDS011;40040;42.706;23.372;2023-07-13T06:09:11;18.25;;;14.88;;
6937;SDS011;40040;42.706;23.372;2023-07-13T06:11:38;21.48;;;15.57;;
6937;SDS011;40040;42.706;23.372;2023-07-13T06:14:06;18.75;;;14.25;;
6937;SDS011;40040;42.706;23.372;2023-07-13T06:16:33;16.05;;;14.35;;
6937;SDS011;40040;42.706;23.372;2023-07-13T06:19:00;16.70;;;13.70;;
6937;SDS011;40040;42.706;23.372;2023-07-13T06:21:27;15.25;;;13.68;;
6937;SDS011;40040;42.706;23.372;2023-07-13T06:23:54;17.20;;;13.90;;
6937;SDS011;40040;42.706;23.372;2023-07-13T06:26:21;14.18;;;12.70;;
6937;SDS011;40040;42.706;23.372;2023-07-13T06:28:48;33.30;;;14.85;;
6937;SDS011;40040;42.706;23.372;2023-07-13T06:31:16;15.65;;;13.25;;
6937;SDS011;40040;42.706;23.372;2023-07-13T06:33:43;15.57;;;13.55;;
6937;SDS011;40040;42.706;23.372;2023-07-13T06:36:10;14.65;;;12.90;;
6937;SDS011;40040;42.706;23.372;2023-07-13T06:38:37;15.18;;;11.80;;
6937;SDS011;40040;42.706;23.372;2023-07-13T06:41:05;16.13;;;12.23;;
6937;SDS011;40040;42.706;23.372;2023-07-13T06:43:32;13.52;;;11.45;;
6937;SDS011;40040;42.706;23.372;2023-07-13T06:45:59;13.18;;;11.80;;
6937;SDS011;40040;42.706;23.372;2023-07-13T06:48:27;12.73;;;11.20;;
6937;SDS011;40040;42.706;23.372;2023-07-13T06:50:54;13.73;;;11.80;;
6937;SDS011;40040;42.706;23.372;2023-07-13T06:53:21;14.95;;;12.10;;
6937;SDS011;40040;42.706;23.372;2023-07-13T06:55:49;13.40;;;11.85;;
6937;SDS011;40040;42.706;23.372;2023-07-13T06:58:17;17.00;;;10.98;;
6937;SDS011;40040;42.706;23.372;2023-07-13T07:00:44;13.63;;;10.90;;
6937;SDS011;40040;42.706;23.372;2023-07-13T07:03:11;12.68;;;10.75;;
6937;SDS011;40040;42.706;23.372;2023-07-13T07:05:39;12.63;;;11.07;;
6937;SDS011;40040;42.706;23.372;2023-07-13T07:08:06;15.40;;;12.75;;
6937;SDS011;40040;42.706;23.372;2023-07-13T07:10:33;15.93;;;12.73;;
6937;SDS011;40040;42.706;23.372;2023-07-13T07:13:01;15.30;;;12.15;;
6937;SDS011;40040;42.706;23.372;2023-07-13T07:15:28;13.15;;;11.70;;
6937;SDS011;40040;42.706;23.372;2023-07-13T07:17:55;15.32;;;12.38;;
6937;SDS011;40040;42.706;23.372;2023-07-13T07:20:22;13.13;;;11.40;;
6937;SDS011;40040;42.706;23.372;2023-07-13T07:22:51;12.65;;;11.38;;
6937;SDS011;40040;42.706;23.372;2023-07-13T07:25:18;12.82;;;11.30;;
6937;SDS011;40040;42.706;23.372;2023-07-13T07:27:45;13.75;;;11.75;;
6937;SDS011;40040;42.706;23.372;2023-07-13T07:30:12;14.07;;;11.60;;
6937;SDS011;40040;42.706;23.372;2023-07-13T07:32:39;12.57;;;11.27;;
6937;SDS011;40040;42.706;23.372;2023-07-13T07:35:07;11.68;;;10.50;;
6937;SDS011;40040;42.706;23.372;2023-07-13T07:37:33;12.55;;;11.27;;
6937;SDS011;40040;42.706;23.372;2023-07-13T07:40:02;12.93;;;10.88;;
6937;SDS011;40040;42.706;23.372;2023-07-13T07:42:29;15.00;;;11.98;;
6937;SDS011;40040;42.706;23.372;2023-07-13T07:44:55;14.15;;;11.35;;
6937;SDS011;40040;42.706;23.372;2023-07-13T07:47:22;12.95;;;11.38;;
6937;SDS011;40040;42.706;23.372;2023-07-13T07:49:49;12.73;;;11.27;;
6937;SDS011;40040;42.706;23.372;2023-07-13T07:52:16;12.80;;;11.60;;
6937;SDS011;40040;42.706;23.372;2023-07-13T07:54:43;12.73;;;11.52;;
6937;SDS011;40040;42.706;23.372;2023-07-13T07:57:11;13.27;;;11.60;;
6937;SDS011;40040;42.706;23.372;2023-07-13T07:59:38;12.73;;;11.40;;
6937;SDS011;40040;42.706;23.372;2023-07-13T08:02:05;13.75;;;11.43;;
6937;SDS011;40040;42.706;23.372;2023-07-13T08:04:33;11.90;;;10.70;;
6937;SDS011;40040;42.706;23.372;2023-07-13T08:06:59;11.52;;;10.35;;
6937;SDS011;40040;42.706;23.372;2023-07-13T08:09:28;12.52;;;11.10;;
6937;SDS011;40040;42.706;23.372;2023-07-13T08:11:54;12.63;;;11.30;;
6937;SDS011;40040;42.706;23.372;2023-07-13T08:14:23;15.27;;;10.75;;
6937;SDS011;40040;42.706;23.372;2023-07-13T08:16:50;13.20;;;10.40;;
6937;SDS011;40040;42.706;23.372;2023-07-13T08:19:16;11.35;;;10.18;;
6937;SDS011;40040;42.706;23.372;2023-07-13T08:21:43;11.90;;;10.75;;
6937;SDS011;40040;42.706;23.372;2023-07-13T08:24:13;13.65;;;10.43;;
6937;SDS011;40040;42.706;23.372;2023-07-13T08:26:40;13.55;;;10.30;;
6937;SDS011;40040;42.706;23.372;2023-07-13T08:29:07;15.73;;;11.48;;
6937;SDS011;40040;42.706;23.372;2023-07-13T08:31:35;13.65;;;11.10;;
6937;SDS011;40040;42.706;23.372;2023-07-13T08:34:02;13.25;;;11.30;;
6937;SDS011;40040;42.706;23.372;2023-07-13T08:36:29;14.32;;;11.88;;
6937;SDS011;40040;42.706;23.372;2023-07-13T08:38:56;11.63;;;10.43;;
6937;SDS011;40040;42.706;23.372;2023-07-13T08:41:23;12.02;;;10.82;;
6937;SDS011;40040;42.706;23.372;2023-07-13T08:43:51;16.42;;;11.98;;
6937;SDS011;40040;42.706;23.372;2023-07-13T08:46:23;11.90;;;10.70;;
6937;SDS011;40040;42.706;23.372;2023-07-13T08:48:55;12.27;;;11.00;;
6937;SDS011;40040;42.706;23.372;2023-07-13T08:51:26;16.88;;;11.38;;
6937;SDS011;40040;42.706;23.372;2023-07-13T08:54:02;13.65;;;11.30;;
6937;SDS011;40040;42.706;23.372;2023-07-13T08:56:32;11.90;;;10.70;;
6937;SDS011;40040;42.706;23.372;2023-07-13T08:59:00;14.30;;;10.80;;
6937;SDS011;40040;42.706;23.372;2023-07-13T09:01:48;13.93;;;11.57;;
6937;SDS011;40040;42.706;23.372;2023-07-13T09:04:29;12.30;;;10.68;;
6937;SDS011;40040;42.706;23.372;2023-07-13T09:07:03;12.00;;;10.80;;
6937;SDS011;40040;42.706;23.372;2023-07-13T09:09:44;12.23;;;11.02;;
6937;SDS011;40040;42.706;23.372;2023-07-13T09:12:23;19.02;;;11.32;;
6937;SDS011;40040;42.706;23.372;2023-07-13T09:14:54;14.50;;;10.90;;
6937;SDS011;40040;42.706;23.372;2023-07-13T09:17:25;12.75;;;11.52;;
6937;SDS011;40040;42.706;23.372;2023-07-13T09:19:58;13.48;;;12.15;;
6937;SDS011;40040;42.706;23.372;2023-07-13T09:22:27;13.23;;;11.43;;
6937;SDS011;40040;42.706;23.372;2023-07-13T09:25:00;14.02;;;11.05;;
6937;SDS011;40040;42.706;23.372;2023-07-13T09:27:33;11.90;;;10.80;;
6937;SDS011;40040;42.706;23.372;2023-07-13T09:30:11;14.43;;;10.82;;
6937;SDS011;40040;42.706;23.372;2023-07-13T09:32:50;12.38;;;11.18;;
6937;SDS011;40040;42.706;23.372;2023-07-13T09:35:21;15.02;;;11.70;;
6937;SDS011;40040;42.706;23.372;2023-07-13T09:37:56;15.68;;;12.18;;
6937;SDS011;40040;42.706;23.372;2023-07-13T09:40:24;17.77;;;12.55;;
6937;SDS011;40040;42.706;23.372;2023-07-13T09:43:02;13.55;;;11.65;;
6937;SDS011;40040;42.706;23.372;2023-07-13T09:45:32;17.10;;;11.80;;
6937;SDS011;40040;42.706;23.372;2023-07-13T09:48:03;13.20;;;11.75;;
6937;SDS011;40040;42.706;23.372;2023-07-13T09:50:34;14.85;;;11.85;;
6937;SDS011;40040;42.706;23.372;2023-07-13T09:53:02;13.18;;;10.88;;
6937;SDS011;40040;42.706;23.372;2023-07-13T09:55:29;12.57;;;11.27;;
6937;SDS011;40040;42.706;23.372;2023-07-13T09:58:02;13.25;;;11.50;;
6937;SDS011;40040;42.706;23.372;2023-07-13T10:00:30;12.38;;;11.10;;
6937;SDS011;40040;42.706;23.372;2023-07-13T10:02:58;12.38;;;10.98;;
6937;SDS011;40040;42.706;23.372;2023-07-13T10:05:26;13.90;;;10.60;;
6937;SDS011;40040;42.706;23.372;2023-07-13T10:07:55;14.30;;;12.77;;
6937;SDS011;40040;42.706;23.372;2023-07-13T10:10:23;11.45;;;9.63;;
6937;SDS011;40040;42.706;23.372;2023-07-13T10:12:50;14.02;;;9.75;;
6937;SDS011;40040;42.706;23.372;2023-07-13T10:15:18;18.88;;;14.20;;
6937;SDS011;40040;42.706;23.372;2023-07-13T10:17:47;11.98;;;10.80;;
6937;SDS011;40040;42.706;23.372;2023-07-13T10:20:16;12.90;;;11.60;;
6937;SDS011;40040;42.706;23.372;2023-07-13T10:22:44;9.70;;;8.77;;
6937;SDS011;40040;42.706;23.372;2023-07-13T10:25:19;10.80;;;9.55;;
6937;SDS011;40040;42.706;23.372;2023-07-13T10:27:49;12.90;;;10.13;;
6937;SDS011;40040;42.706;23.372;2023-07-13T10:30:19;10.43;;;9.30;;
6937;SDS011;40040;42.706;23.372;2023-07-13T10:32:50;9.98;;;9.18;;
6937;SDS011;40040;42.706;23.372;2023-07-13T10:35:19;11.65;;;9.68;;
6937;SDS011;40040;42.706;23.372;2023-07-13T10:37:49;11.18;;;9.80;;
6937;SDS011;40040;42.706;23.372;2023-07-13T10:40:22;10.68;;;9.55;;
6937;SDS011;40040;42.706;23.372;2023-07-13T10:43:04;13.63;;;11.60;;
6937;SDS011;40040;42.706;23.372;2023-07-13T10:45:38;10.98;;;9.27;;
6937;SDS011;40040;42.706;23.372;2023-07-13T10:48:07;11.63;;;8.48;;
6937;SDS011;40040;42.706;23.372;2023-07-13T10:50:40;6.30;;;5.80;;
6937;SDS011;40040;42.706;23.372;2023-07-13T10:53:17;8.85;;;6.88;;
6937;SDS011;40040;42.706;23.372;2023-07-13T10:55:58;6.82;;;6.10;;
6937;SDS011;40040;42.706;23.372;2023-07-13T10:58:31;7.22;;;6.10;;
6937;SDS011;40040;42.706;23.372;2023-07-13T11:01:03;7.00;;;6.30;;
6937;SDS011;40040;42.706;23.372;2023-07-13T11:03:34;7.22;;;5.85;;
6937;SDS011;40040;42.706;23.372;2023-07-13T11:06:07;6.15;;;5.63;;
6937;SDS011;40040;42.706;23.372;2023-07-13T11:08:37;6.60;;;5.60;;
6937;SDS011;40040;42.706;23.372;2023-07-13T11:14:04;5.80;;;5.30;;
6937;SDS011;40040;42.706;23.372;2023-07-13T11:16:51;6.82;;;5.82;;
6937;SDS011;40040;42.706;23.372;2023-07-13T11:22:15;7.40;;;6.20;;
6937;SDS011;40040;42.706;23.372;2023-07-13T11:24:56;6.50;;;5.82;;
6937;SDS011;40040;42.706;23.372;2023-07-13T11:27:35;8.00;;;5.35;;
6937;SDS011;40040;42.706;23.372;2023-07-13T11:33:07;6.65;;;6.15;;
6937;SDS011;40040;42.706;23.372;2023-07-13T11:35:41;7.70;;;6.10;;
6937;SDS011;40040;42.706;23.372;2023-07-13T11:38:14;7.05;;;5.40;;
6937;SDS011;40040;42.706;23.372;2023-07-13T11:40:44;6.32;;;5.72;;
6937;SDS011;40040;42.706;23.372;2023-07-13T11:43:14;6.60;;;5.95;;
6937;SDS011;40040;42.706;23.372;2023-07-13T11:45:42;6.93;;;6.13;;
6937;SDS011;40040;42.706;23.372;2023-07-13T11:48:20;7.03;;;6.47;;
6937;SDS011;40040;42.706;23.372;2023-07-13T11:50:53;7.93;;;6.40;;
6937;SDS011;40040;42.706;23.372;2023-07-13T11:53:26;6.45;;;5.90;;
6937;SDS011;40040;42.706;23.372;2023-07-13T11:55:55;6.75;;;6.07;;
6937;SDS011;40040;42.706;23.372;2023-07-13T11:58:24;8.90;;;6.53;;
6937;SDS011;40040;42.706;23.372;2023-07-13T12:00:53;10.68;;;6.53;;
6937;SDS011;40040;42.706;23.372;2023-07-13T12:03:24;7.50;;;6.30;;
6937;SDS011;40040;42.706;23.372;2023-07-13T12:05:55;10.75;;;6.40;;
6937;SDS011;40040;42.706;23.372;2023-07-13T12:08:24;9.20;;;6.78;;
6937;SDS011;40040;42.706;23.372;2023-07-13T12:10:56;7.32;;;6.47;;
6937;SDS011;40040;42.706;23.372;2023-07-13T12:13:34;7.35;;;6.43;;
6937;SDS011;40040;42.706;23.372;2023-07-13T12:16:07;7.63;;;6.93;;
6937;SDS011;40040;42.706;23.372;2023-07-13T12:18:38;9.55;;;7.10;;
6937;SDS011;40040;42.706;23.372;2023-07-13T12:21:09;7.97;;;7.28;;
6937;SDS011;40040;42.706;23.372;2023-07-13T12:23:39;8.68;;;6.75;;
6937;SDS011;40040;42.706;23.372;2023-07-13T12:26:09;9.73;;;7.53;;
6937;SDS011;40040;42.706;23.372;2023-07-13T12:28:40;7.25;;;6.45;;
6937;SDS011;40040;42.706;23.372;2023-07-13T12:31:23;9.68;;;6.65;;
6937;SDS011;40040;42.706;23.372;2023-07-13T12:33:56;9.88;;;6.22;;
6937;SDS011;40040;42.706;23.372;2023-07-13T12:36:26;6.55;;;5.93;;
6937;SDS011;40040;42.706;23.372;2023-07-13T12:38:56;6.30;;;5.70;;
6937;SDS011;40040;42.706;23.372;2023-07-13T12:41:29;7.47;;;6.45;;
6937;SDS011;40040;42.706;23.372;2023-07-13T12:43:57;6.47;;;5.80;;
6937;SDS011;40040;42.706;23.372;2023-07-13T12:46:25;8.77;;;6.63;;
6937;SDS011;40040;42.706;23.372;2023-07-13T12:48:54;8.18;;;5.82;;
6937;SDS011;40040;42.706;23.372;2023-07-13T12:51:21;10.60;;;6.50;;
6937;SDS011;40040;42.706;23.372;2023-07-13T12:53:51;6.85;;;6.18;;
6937;SDS011;40040;42.706;23.372;2023-07-13T12:56:25;6.82;;;6.22;;
6937;SDS011;40040;42.706;23.372;2023-07-13T12:58:58;7.00;;;5.95;;
6937;SDS011;40040;42.706;23.372;2023-07-13T13:01:29;6.70;;;6.00;;
6937;SDS011;40040;42.706;23.372;2023-07-13T13:04:00;7.78;;;6.47;;
6937;SDS011;40040;42.706;23.372;2023-07-13T13:06:29;9.23;;;6.90;;
6937;SDS011;40040;42.706;23.372;2023-07-13T13:08:57;6.93;;;6.22;;
6937;SDS011;40040;42.706;23.372;2023-07-13T13:11:25;11.75;;;6.53;;
6937;SDS011;40040;42.706;23.372;2023-07-13T13:13:53;9.25;;;6.10;;
6937;SDS011;40040;42.706;23.372;2023-07-13T13:16:23;6.13;;;5.55;;
6937;SDS011;40040;42.706;23.372;2023-07-13T13:18:59;9.25;;;5.88;;
6937;SDS011;40040;42.706;23.372;2023-07-13T13:21:36;9.25;;;5.80;;
6937;SDS011;40040;42.706;23.372;2023-07-13T13:24:04;9.77;;;6.32;;
6937;SDS011;40040;42.706;23.372;2023-07-13T13:26:36;6.78;;;5.65;;
6937;SDS011;40040;42.706;23.372;2023-07-13T13:29:04;9.35;;;5.90;;
6937;SDS011;40040;42.706;23.372;2023-07-13T13:31:40;9.10;;;5.50;;
6937;SDS011;40040;42.706;23.372;2023-07-13T13:34:08;8.60;;;5.88;;
6937;SDS011;40040;42.706;23.372;2023-07-13T13:36:36;9.60;;;5.53;;
6937;SDS011;40040;42.706;23.372;2023-07-13T13:39:05;8.60;;;5.65;;
6937;SDS011;40040;42.706;23.372;2023-07-13T13:41:42;8.27;;;5.95;;
6937;SDS011;40040;42.706;23.372;2023-07-13T13:44:09;6.30;;;5.70;;
6937;SDS011;40040;42.706;23.372;2023-07-13T13:46:36;8.98;;;5.65;;
6937;SDS011;40040;42.706;23.372;2023-07-13T13:49:04;7.90;;;5.20;;
6937;SDS011;40040;42.706;23.372;2023-07-13T13:51:31;7.75;;;5.82;;
6937;SDS011;40040;42.706;23.372;2023-07-13T13:53:58;7.80;;;5.15;;
6937;SDS011;40040;42.706;23.372;2023-07-13T13:56:27;7.70;;;5.30;;
6937;SDS011;40040;42.706;23.372;2023-07-13T13:58:54;7.60;;;5.10;;
6937;SDS011;40040;42.706;23.372;2023-07-13T14:01:21;7.40;;;5.75;;
6937;SDS011;40040;42.706;23.372;2023-07-13T14:03:49;9.95;;;5.22;;
6937;SDS011;40040;42.706;23.372;2023-07-13T14:06:19;7.13;;;5.55;;
6937;SDS011;40040;42.706;23.372;2023-07-13T14:08:47;8.82;;;6.00;;
6937;SDS011;40040;42.706;23.372;2023-07-13T14:11:14;6.15;;;5.20;;
6937;SDS011;40040;42.706;23.372;2023-07-13T14:13:44;8.13;;;5.65;;
6937;SDS011;40040;42.706;23.372;2023-07-13T14:16:16;7.13;;;5.50;;
6937;SDS011;40040;42.706;23.372;2023-07-13T14:18:44;7.75;;;5.60;;
6937;SDS011;40040;42.706;23.372;2023-07-13T14:21:12;8.25;;;5.60;;
6937;SDS011;40040;42.706;23.372;2023-07-13T14:23:41;6.82;;;5.43;;
6937;SDS011;40040;42.706;23.372;2023-07-13T14:26:10;9.55;;;5.75;;
6937;SDS011;40040;42.706;23.372;2023-07-13T14:28:41;7.30;;;5.53;;
6937;SDS011;40040;42.706;23.372;2023-07-13T14:31:11;6.93;;;5.78;;
6937;SDS011;40040;42.706;23.372;2023-07-13T14:33:38;6.68;;;5.70;;
6937;SDS011;40040;42.706;23.372;2023-07-13T14:36:25;10.05;;;5.80;;
6937;SDS011;40040;42.706;23.372;2023-07-13T14:38:58;6.90;;;6.03;;
6937;SDS011;40040;42.706;23.372;2023-07-13T14:41:27;8.55;;;6.40;;
6937;SDS011;40040;42.706;23.372;2023-07-13T14:43:54;8.27;;;6.50;;
6937;SDS011;40040;42.706;23.372;2023-07-13T14:46:24;7.97;;;5.68;;
6937;SDS011;40040;42.706;23.372;2023-07-13T14:48:58;7.40;;;6.00;;
6937;SDS011;40040;42.706;23.372;2023-07-13T14:51:28;6.40;;;5.75;;